< < Back
Terminal Aerodrome Forecast


Current Version              Previous Versions:   1  2  3  4  5  6  7  8  9  

Terminal Aerodrome Forecast

924
FTUS42 KJAX 061720
TAFSSI
TAF
KSSI 061720Z 0618/0718 14008KT P6SM SCT035
     FM062100 14010KT P6SM VCTS SCT045CB SCT150 BKN250
      TEMPO 0622/0624 VRB15G25KT 3SM TSRA BR SCT020 BKN035CB OVC090
     FM070200 16008KT P6SM VCSH SCT030 BKN090 OVC250
     FM070400 24004KT P6SM SCT150 SCT250=

Latest METAR

672
SAUS70 KWBC 062000
MTRSSI
METAR KSSI 061953Z AUTO 16009KT 10SM CLR 28/23 A3012 RMK AO2 SLP202
T02830233


USA.gov is the U.S. government's official web portal to all federal, state and local government web resources and services.